Time;durP1;ratioP1;P1;durP2;ratioP2;P2;SDS_P1;SDS_P2;PMS_P1;PMS_P2;Temp;Humidity;BMP_temperature;BMP_pressure;BME280_temperature;BME280_humidity;BME280_pressure;Samples;Min_cycle;Max_cycle;Signal;HPM_P1;HPM_P2
2022/08/09 00:04:39;;;;;;;3.83;1.27;;;18.00;99.90;;;;;;12318057;28;20043;-84
2022/08/09 00:10:42;;;;;;;2.78;1.00;;;17.90;99.90;;;;;;12314978;28;20121;-84
2022/08/09 00:16:44;;;;;;;2.70;1.27;;;17.80;99.90;;;;;;12323233;28;20054;-84
2022/08/09 00:22:48;;;;;;;3.40;0.98;;;17.70;99.90;;;;;;12316876;28;20047;-83
2022/08/09 00:28:49;;;;;;;5.57;1.27;;;17.70;99.90;;;;;;12315933;28;20059;-84
2022/08/09 00:34:54;;;;;;;2.53;1.15;;;17.70;99.90;;;;;;12311531;28;20454;-84
2022/08/09 00:40:56;;;;;;;3.33;1.23;;;17.70;99.90;;;;;;12290273;28;20059;-84
2022/08/09 00:46:58;;;;;;;3.15;1.40;;;17.70;99.90;;;;;;12296294;28;20051;-84
2022/08/09 00:53:06;;;;;;;3.65;1.20;;;17.70;99.90;;;;;;12287721;28;20048;-84
2022/08/09 00:59:11;;;;;;;2.53;1.10;;;17.60;99.90;;;;;;12295814;28;20764;-84
2022/08/09 01:05:30;;;;;;;3.28;1.40;;;17.60;99.90;;;;;;12285118;28;20118;-83
2022/08/09 01:11:59;;;;;;;3.30;1.10;;;17.60;99.90;;;;;;12293149;28;20472;-84
2022/08/09 01:18:07;;;;;;;2.80;1.10;;;17.50;99.90;;;;;;12298328;28;20093;-84
2022/08/09 01:24:44;;;;;;;5.45;1.48;;;17.40;99.90;;;;;;12289525;28;20078;-84
2022/08/09 01:30:56;;;;;;;5.93;1.50;;;17.20;99.90;;;;;;12291812;28;20051;-83
2022/08/09 01:37:02;;;;;;;5.30;2.28;;;17.20;99.90;;;;;;12321188;28;20110;-83
2022/08/09 01:43:06;;;;;;;9.52;2.10;;;17.20;99.90;;;;;;12338380;28;20046;-84
2022/08/09 01:49:09;;;;;;;4.93;1.80;;;17.10;99.90;;;;;;12327952;28;20846;-83
2022/08/09 01:55:16;;;;;;;4.13;2.25;;;17.00;99.90;;;;;;12326577;28;20055;-84
2022/08/09 02:01:19;;;;;;;4.45;1.83;;;16.80;99.90;;;;;;12338017;28;20054;-83
2022/08/09 02:07:35;;;;;;;5.73;2.30;;;16.80;99.90;;;;;;12319323;28;20057;-83
2022/08/09 02:13:58;;;;;;;4.68;1.95;;;16.70;99.90;;;;;;12337500;28;20046;-84
2022/08/09 02:20:08;;;;;;;6.63;2.20;;;16.50;99.90;;;;;;12328227;28;20061;-84
2022/08/09 02:26:14;;;;;;;4.18;2.22;;;16.50;99.90;;;;;;12319322;28;20113;-83
2022/08/09 02:32:32;;;;;;;5.13;2.42;;;16.50;99.90;;;;;;12322283;28;20050;-84
2022/08/09 02:38:42;;;;;;;3.63;2.55;;;16.60;99.90;;;;;;12339727;28;20047;-83
2022/08/09 02:44:54;;;;;;;3.42;2.00;;;16.60;99.90;;;;;;12343229;28;20074;-83
2022/08/09 02:50:59;;;;;;;5.22;2.25;;;16.60;99.90;;;;;;12340319;28;20043;-85
2022/08/09 02:57:04;;;;;;;8.93;2.40;;;16.50;99.90;;;;;;12341593;28;20055;-83
2022/08/09 03:03:25;;;;;;;4.30;2.28;;;16.50;99.90;;;;;;12326468;28;20101;-83
2022/08/09 03:09:49;;;;;;;6.70;2.33;;;16.60;99.90;;;;;;12311325;28;20051;-84
2022/08/09 03:15:57;;;;;;;5.10;2.67;;;16.50;99.90;;;;;;12324029;28;20057;-83
2022/08/09 03:22:08;;;;;;;3.50;2.20;;;16.50;99.90;;;;;;12341962;28;20109;-84
2022/08/09 03:28:21;;;;;;;4.57;2.38;;;16.40;99.90;;;;;;12326363;28;20097;-83
2022/08/09 03:34:23;;;;;;;5.70;2.30;;;16.40;99.90;;;;;;12313940;28;20047;-84
2022/08/09 03:40:25;;;;;;;4.25;2.40;;;16.50;99.90;;;;;;12318948;28;20066;-83
2022/08/09 03:46:31;;;;;;;5.38;2.58;;;16.50;99.90;;;;;;12319173;28;20479;-83
2022/08/09 03:52:35;;;;;;;9.32;3.50;;;16.50;99.90;;;;;;12319603;28;20138;-85
2022/08/09 03:58:37;;;;;;;5.57;2.60;;;16.50;99.90;;;;;;12338959;28;20553;-83
2022/08/09 04:04:39;;;;;;;5.90;2.60;;;16.50;99.90;;;;;;12315142;28;20392;-83
2022/08/09 04:10:46;;;;;;;5.25;2.60;;;16.40;99.90;;;;;;12312966;28;20059;-83
2022/08/09 04:16:50;;;;;;;5.63;2.65;;;16.40;99.90;;;;;;12338981;28;20062;-83
2022/08/09 04:22:58;;;;;;;7.15;3.25;;;16.30;99.90;;;;;;12322143;28;20039;-84
2022/08/09 04:29:00;;;;;;;6.50;3.58;;;16.30;99.90;;;;;;12320894;28;20055;-83
2022/08/09 04:35:11;;;;;;;5.10;2.90;;;16.30;99.90;;;;;;12323603;28;20051;-84
2022/08/09 04:41:15;;;;;;;6.57;3.10;;;16.30;99.90;;;;;;12324658;28;20105;-83
2022/08/09 04:47:18;;;;;;;5.82;3.40;;;16.20;99.90;;;;;;12320978;28;20133;-84
2022/08/09 04:53:19;;;;;;;6.18;3.35;;;16.20;99.90;;;;;;12336870;28;20051;-83
2022/08/09 04:59:22;;;;;;;6.90;3.60;;;16.20;99.90;;;;;;12336114;28;20043;-85
2022/08/09 05:05:24;;;;;;;5.90;3.67;;;16.10;99.90;;;;;;12337171;28;20059;-84
2022/08/09 05:11:46;;;;;;;8.43;4.20;;;16.20;99.90;;;;;;12327199;28;20054;-83
2022/08/09 05:17:49;;;;;;;9.15;4.15;;;16.10;99.90;;;;;;12337109;28;20047;-83
2022/08/09 05:24:11;;;;;;;8.07;3.72;;;16.10;99.90;;;;;;12329668;28;20442;-84
2022/08/09 05:30:15;;;;;;;6.38;3.60;;;16.10;99.90;;;;;;12330049;28;20058;-84
2022/08/09 05:36:19;;;;;;;5.15;3.88;;;16.20;99.90;;;;;;12316116;28;20070;-83
2022/08/09 05:42:29;;;;;;;6.10;3.33;;;16.30;99.90;;;;;;12344746;28;20059;-83
2022/08/09 05:48:31;;;;;;;6.82;3.80;;;16.40;99.90;;;;;;12331821;28;20046;-83
2022/08/09 05:54:34;;;;;;;5.50;3.55;;;16.40;99.90;;;;;;12337653;28;20094;-83
2022/08/09 06:00:39;;;;;;;10.77;4.07;;;16.40;99.90;;;;;;12323083;28;20047;-83
2022/08/09 06:06:41;;;;;;;6.57;3.80;;;16.60;99.90;;;;;;12327266;28;20063;-84
2022/08/09 06:12:50;;;;;;;7.13;3.65;;;16.60;99.90;;;;;;12323578;28;20051;-84
2022/08/09 06:19:13;;;;;;;5.88;3.25;;;16.60;99.90;;;;;;12340326;28;20061;-84
2022/08/09 06:25:15;;;;;;;6.13;3.17;;;16.70;99.90;;;;;;12320589;28;20051;-84
2022/08/09 06:31:21;;;;;;;6.15;3.17;;;16.90;99.90;;;;;;12313491;28;20617;-83
2022/08/09 06:37:32;;;;;;;5.28;2.83;;;16.90;99.90;;;;;;12318063;28;20062;-83
2022/08/09 06:43:53;;;;;;;5.03;3.08;;;17.10;99.90;;;;;;12339114;28;20051;-84
2022/08/09 06:49:56;;;;;;;6.75;3.15;;;17.10;99.90;;;;;;12327580;28;20059;-83
2022/08/09 06:56:15;;;;;;;6.43;2.58;;;17.30;99.90;;;;;;12342004;28;20074;-84
2022/08/09 07:02:19;;;;;;;4.65;2.50;;;17.30;99.90;;;;;;12338519;28;20050;-84
2022/08/09 07:08:21;;;;;;;7.90;2.70;;;17.40;99.90;;;;;;12326006;28;20082;-84
2022/08/09 07:14:25;;;;;;;7.03;2.28;;;17.40;99.90;;;;;;12325359;28;20051;-84
2022/08/09 07:20:28;;;;;;;7.47;2.53;;;17.60;99.90;;;;;;12368489;28;20074;-83
2022/08/09 07:26:29;;;;;;;6.32;2.20;;;17.80;99.90;;;;;;12323683;28;20097;-84
2022/08/09 07:32:31;;;;;;;4.88;1.70;;;17.90;99.90;;;;;;12321235;28;20051;-84
2022/08/09 07:38:35;;;;;;;4.55;2.20;;;18.00;99.90;;;;;;12315165;28;20059;-85
2022/08/09 07:44:39;;;;;;;5.10;1.98;;;18.20;99.90;;;;;;12322436;28;20085;-84
2022/08/09 07:50:54;;;;;;;4.72;2.00;;;18.40;99.90;;;;;;12324659;28;20050;-83
2022/08/09 07:57:16;;;;;;;5.15;2.30;;;18.70;99.90;;;;;;12326583;28;20055;-84
2022/08/09 08:03:18;;;;;;;5.97;1.80;;;18.70;99.90;;;;;;12319683;28;20047;-84
2022/08/09 08:09:24;;;;;;;4.85;1.95;;;18.80;99.90;;;;;;12320049;28;20063;-84
2022/08/09 08:15:45;;;;;;;5.50;1.52;;;19.00;99.90;;;;;;12352342;28;20387;-84
2022/08/09 08:21:51;;;;;;;4.78;1.70;;;19.00;99.90;;;;;;12313233;28;20522;-83
2022/08/09 08:27:53;;;;;;;4.90;1.60;;;19.20;99.90;;;;;;12340174;28;20654;-84
2022/08/09 08:33:58;;;;;;;3.40;1.40;;;19.20;99.90;;;;;;12324616;28;20046;-84
2022/08/09 08:40:02;;;;;;;3.47;1.23;;;19.50;99.90;;;;;;12326294;28;20573;-84
2022/08/09 08:46:06;;;;;;;3.63;1.40;;;19.70;99.90;;;;;;12324883;28;20054;-84
2022/08/09 08:52:29;;;;;;;4.97;1.23;;;20.00;99.90;;;;;;12335684;28;20042;-84
2022/08/09 08:58:51;;;;;;;5.80;1.40;;;20.30;99.90;;;;;;12338433;28;20487;-83
2022/08/09 09:04:56;;;;;;;2.57;1.33;;;20.40;99.90;;;;;;12319721;28;20043;-84
2022/08/09 09:11:04;;;;;;;4.53;1.35;;;20.60;99.90;;;;;;12312560;28;20046;-83
2022/08/09 09:17:06;;;;;;;6.70;1.53;;;20.80;99.90;;;;;;12317161;28;20058;-84
2022/08/09 09:23:13;;;;;;;3.53;1.35;;;21.00;99.90;;;;;;12319500;28;20050;-84
2022/08/09 09:29:33;;;;;;;4.13;1.50;;;21.10;99.90;;;;;;12333530;28;20027;-84
2022/08/09 09:35:58;;;;;;;4.38;1.50;;;21.40;99.90;;;;;;12325800;28;20952;-84
2022/08/09 09:42:05;;;;;;;4.82;1.48;;;21.50;99.90;;;;;;12322795;28;20054;-83
2022/08/09 09:48:12;;;;;;;3.60;1.50;;;21.60;99.90;;;;;;12330240;28;20061;-83
2022/08/09 09:54:21;;;;;;;3.20;1.50;;;21.70;99.90;;;;;;12326306;28;20141;-84
2022/08/09 10:00:23;;;;;;;5.22;1.30;;;21.80;99.90;;;;;;12327085;28;20932;-85
2022/08/09 10:06:29;;;;;;;4.63;1.60;;;22.10;99.90;;;;;;12337132;28;20743;-84
2022/08/09 10:12:36;;;;;;;4.50;1.50;;;22.30;99.90;;;;;;12327814;28;20062;-84
2022/08/09 10:18:52;;;;;;;2.70;1.40;;;22.50;99.90;;;;;;12352229;28;20058;-85
2022/08/09 10:24:55;;;;;;;4.07;1.60;;;22.70;99.90;;;;;;12339293;28;20043;-85
2022/08/09 10:30:57;;;;;;;2.92;1.42;;;22.80;99.90;;;;;;12328359;28;20043;-84
2022/08/09 10:37:20;;;;;;;2.80;1.50;;;23.10;99.90;;;;;;12339154;28;20043;-85
2022/08/09 10:43:23;;;;;;;3.45;1.70;;;23.20;99.90;;;;;;12321550;28;20062;-85
2022/08/09 10:49:39;;;;;;;;;;;23.40;99.90;;;;;;12335733;28;20112;-85
2022/08/09 10:56:19;;;;;;;4.90;1.80;;;23.40;99.90;;;;;;12331882;28;19926;-84
2022/08/09 11:02:37;;;;;;;3.10;1.67;;;23.60;99.90;;;;;;12319503;28;20098;-85
2022/08/09 11:08:59;;;;;;;3.30;1.77;;;23.80;99.90;;;;;;12316692;28;20053;-85
2022/08/09 11:15:24;;;;;;;3.42;2.10;;;23.90;99.90;;;;;;12318054;28;20391;-84
2022/08/09 11:21:52;;;;;;;3.95;1.90;;;24.10;99.90;;;;;;12319637;28;20129;-85
2022/08/09 11:28:39;;;;;;;4.65;1.80;;;24.00;99.90;;;;;;12315820;28;20059;-84
2022/08/09 11:34:59;;;;;;;4.07;1.60;;;24.50;99.90;;;;;;12301058;28;20059;-84
2022/08/09 11:41:02;;;;;;;2.95;1.50;;;24.60;99.90;;;;;;12319512;28;20407;-85
2022/08/09 11:47:05;;;;;;;3.28;1.75;;;24.60;99.90;;;;;;12318760;28;20051;-84
2022/08/09 11:53:14;;;;;;;3.85;2.05;;;24.70;99.90;;;;;;12337252;28;20428;-84
2022/08/09 11:59:36;;;;;;;4.47;1.60;;;24.60;99.90;;;;;;12320456;28;20828;-87
2022/08/09 12:05:38;;;;;;;3.25;1.63;;;25.10;99.90;;;;;;12313732;28;20038;-86
2022/08/09 12:12:14;;;;;;;3.58;1.55;;;25.00;99.90;;;;;;12568916;23;20189;-35
2022/08/09 12:18:32;;;;;;;3.85;1.60;;;25.10;99.90;;;;;;12300954;28;20113;-34
2022/08/09 12:24:34;;;;;;;2.88;1.30;;;25.10;99.90;;;;;;12322059;28;20062;-34
2022/08/09 12:30:40;;;;;;;2.25;1.40;;;25.40;99.90;;;;;;12328616;28;20047;-39
2022/08/09 12:36:55;;;;;;;3.38;1.60;;;25.30;99.90;;;;;;12329239;28;20050;-39
2022/08/09 12:43:24;;;;;;;4.82;1.63;;;25.70;99.90;;;;;;12328796;28;20089;-34
2022/08/09 12:56:14;;;;;;;3.65;1.60;;;25.90;99.90;;;;;;12328696;28;20414;-34
2022/08/09 13:02:57;;;;;;;2.45;1.58;;;25.90;99.90;;;;;;12332158;28;20057;-40
2022/08/09 13:09:01;;;;;;;3.33;1.60;;;25.60;99.90;;;;;;12329474;28;20051;-38
2022/08/09 13:15:07;;;;;;;3.92;1.67;;;25.80;99.90;;;;;;12339663;28;20059;-34
2022/08/09 13:21:24;;;;;;;3.75;1.60;;;25.90;99.90;;;;;;12340254;28;20062;-40
2022/08/09 13:27:45;;;;;;;6.63;1.48;;;26.20;99.90;;;;;;12340598;28;20065;-38
2022/08/09 13:33:57;;;;;;;3.08;1.45;;;26.00;99.90;;;;;;12333420;28;20049;-35
2022/08/09 13:39:59;;;;;;;3.28;1.30;;;26.10;99.90;;;;;;12326628;28;20133;-38
2022/08/09 13:46:20;;;;;;;3.30;1.50;;;26.10;99.90;;;;;;12327767;28;20052;-34
2022/08/09 13:52:42;;;;;;;3.30;1.27;;;26.20;99.90;;;;;;12336543;28;20051;-34
2022/08/09 13:58:48;;;;;;;4.05;1.40;;;26.50;99.90;;;;;;12339463;28;20094;-38
2022/08/09 14:04:50;;;;;;;4.37;1.27;;;26.50;99.90;;;;;;12337540;28;20133;-35
2022/08/09 14:11:01;;;;;;;3.30;1.15;;;26.50;99.90;;;;;;12324563;28;20371;-40
2022/08/09 14:17:02;;;;;;;1.98;1.10;;;26.00;99.90;;;;;;12334781;28;20498;-38
2022/08/09 14:23:05;;;;;;;;;;;25.70;99.90;;;;;;12340264;28;20065;-35
2022/08/09 14:29:11;;;;;;;2.35;1.20;;;26.00;99.90;;;;;;12344573;28;20238;-34
2022/08/09 14:35:32;;;;;;;5.15;1.20;;;26.10;99.90;;;;;;12333176;28;20157;-38
2022/08/09 14:41:53;;;;;;;2.88;1.38;;;26.20;99.90;;;;;;12330128;28;20066;-34
2022/08/09 14:47:55;;;;;;;2.90;1.42;;;25.80;99.90;;;;;;12340434;28;20076;-38
2022/08/09 14:54:00;;;;;;;4.30;1.58;;;26.00;99.90;;;;;;12322372;28;20051;-34
2022/08/09 15:00:04;;;;;;;3.58;1.40;;;25.80;99.90;;;;;;12320274;28;20054;-34
2022/08/09 15:06:10;;;;;;;3.05;1.30;;;26.30;99.90;;;;;;12322274;28;20063;-34
2022/08/09 15:12:12;;;;;;;6.63;1.40;;;26.40;99.90;;;;;;12320062;28;20100;-39
2022/08/09 15:18:14;;;;;;;3.90;1.27;;;26.00;99.90;;;;;;12324232;28;20047;-38
2022/08/09 15:24:16;;;;;;;3.77;1.10;;;25.80;99.90;;;;;;12330203;28;20106;-34
2022/08/09 15:30:28;;;;;;;5.63;1.40;;;26.10;99.90;;;;;;12318680;28;20402;-34
2022/08/09 15:36:50;;;;;;;2.00;1.00;;;26.20;99.90;;;;;;12332496;28;20058;-39
2022/08/09 15:42:53;;;;;;;2.38;1.20;;;26.00;99.90;;;;;;12313180;28;20058;-38
2022/08/09 15:48:55;;;;;;;3.60;1.02;;;25.90;99.90;;;;;;12327609;28;20066;-39
2022/08/09 15:55:19;;;;;;;3.50;1.20;;;26.40;99.90;;;;;;12331963;28;20066;-34
2022/08/09 16:01:21;;;;;;;1.70;1.00;;;26.60;99.90;;;;;;12329104;28;20059;-34
2022/08/09 16:07:24;;;;;;;2.20;1.00;;;26.80;99.90;;;;;;12326621;28;20619;-35
2022/08/09 16:13:26;;;;;;;1.60;0.83;;;26.60;99.90;;;;;;12323989;28;20055;-39
2022/08/09 16:19:48;;;;;;;3.60;0.98;;;26.30;99.90;;;;;;12325366;28;20046;-34
2022/08/09 16:26:05;;;;;;;9.57;1.20;;;26.60;99.90;;;;;;12329578;28;20102;-38
2022/08/09 16:32:20;;;;;;;3.45;1.10;;;26.20;99.90;;;;;;12329673;28;20415;-34
2022/08/09 16:38:36;;;;;;;2.95;0.90;;;26.50;99.90;;;;;;12330096;28;20050;-38
2022/08/09 16:44:38;;;;;;;;;;;26.60;99.90;;;;;;12331444;28;20054;-34
2022/08/09 16:50:43;;;;;;;3.70;0.80;;;26.60;99.90;;;;;;12331828;28;20216;-34
2022/08/09 16:57:00;;;;;;;2.40;1.05;;;26.60;99.90;;;;;;12329105;28;20110;-35
2022/08/09 17:03:02;;;;;;;2.53;0.70;;;26.40;99.90;;;;;;12333667;28;20053;-38
2022/08/09 17:09:06;;;;;;;1.80;0.80;;;26.30;99.90;;;;;;12341161;28;20505;-34
2022/08/09 17:15:28;;;;;;;3.25;0.75;;;26.30;99.90;;;;;;12329601;28;20046;-35
2022/08/09 17:21:50;;;;;;;1.77;0.93;;;26.00;99.90;;;;;;12318019;28;20042;-39
2022/08/09 17:28:02;;;;;;;2.63;0.80;;;26.00;99.90;;;;;;12332878;28;20490;-39
2022/08/09 17:34:04;;;;;;;2.65;0.70;;;26.00;99.90;;;;;;12334796;28;20047;-38
2022/08/09 17:40:27;;;;;;;1.13;0.63;;;26.00;99.90;;;;;;12330649;28;20054;-34
2022/08/09 17:46:29;;;;;;;3.45;0.73;;;26.00;99.90;;;;;;12333257;28;20042;-34
2022/08/09 17:52:36;;;;;;;1.67;0.65;;;25.70;99.90;;;;;;12345555;28;20113;-34
2022/08/09 17:58:37;;;;;;;;;;;25.90;99.90;;;;;;12337824;28;20427;-38
2022/08/09 18:04:46;;;;;;;2.20;0.75;;;25.70;99.90;;;;;;12338135;28;19932;-38
2022/08/09 18:10:49;;;;;;;2.78;0.60;;;25.60;99.90;;;;;;12333488;28;20130;-38
2022/08/09 18:17:03;;;;;;;2.65;0.80;;;25.00;99.90;;;;;;12328245;28;20058;-39
2022/08/09 18:23:05;;;;;;;3.38;0.73;;;24.60;99.90;;;;;;12337714;28;20054;-38
2022/08/09 18:29:09;;;;;;;1.98;0.90;;;24.50;99.90;;;;;;12332279;28;20558;-39
2022/08/09 18:35:30;;;;;;;2.33;0.80;;;24.30;99.90;;;;;;12335879;28;20066;-38
2022/08/09 18:41:52;;;;;;;2.45;0.90;;;24.10;99.90;;;;;;12329980;28;20411;-38
2022/08/09 18:47:54;;;;;;;1.52;0.70;;;23.90;99.90;;;;;;12326776;28;20070;-38
2022/08/09 18:53:59;;;;;;;1.50;0.68;;;23.80;99.90;;;;;;12323896;28;20043;-38
2022/08/09 19:00:17;;;;;;;2.75;0.68;;;23.60;99.90;;;;;;12326790;28;20090;-34
2022/08/09 19:06:21;;;;;;;2.20;0.80;;;23.50;99.90;;;;;;12332291;28;20527;-34
2022/08/09 19:12:28;;;;;;;3.15;1.27;;;23.40;99.90;;;;;;12330350;28;20055;-37
2022/08/09 19:18:31;;;;;;;3.13;0.90;;;23.20;99.90;;;;;;12333395;28;20062;-38
2022/08/09 19:24:42;;;;;;;4.20;1.02;;;23.10;99.90;;;;;;12330434;28;20109;-37
2022/08/09 19:31:05;;;;;;;3.38;0.88;;;22.90;99.90;;;;;;12330307;28;20081;-34
2022/08/09 19:37:08;;;;;;;3.58;0.90;;;22.80;99.90;;;;;;12327415;28;20062;-34
2022/08/09 19:43:18;;;;;;;2.97;1.13;;;22.70;99.90;;;;;;12328581;28;20055;-37
2022/08/09 19:49:40;;;;;;;2.57;1.00;;;22.60;99.90;;;;;;12334918;28;20058;-38
2022/08/09 19:56:02;;;;;;;4.45;0.98;;;22.50;99.90;;;;;;12342270;28;20133;-34
2022/08/09 20:02:09;;;;;;;4.88;1.13;;;22.40;99.90;;;;;;12328248;28;20042;-37
2022/08/09 20:08:31;;;;;;;;;;;22.40;99.90;;;;;;12332023;28;20142;-33
2022/08/09 20:14:36;;;;;;;5.63;1.42;;;22.30;99.90;;;;;;12319178;28;20042;-34
2022/08/09 20:20:50;;;;;;;4.63;1.20;;;22.20;99.90;;;;;;12338273;28;20051;-34
2022/08/09 20:26:56;;;;;;;3.38;1.10;;;22.10;99.90;;;;;;12315635;28;20054;-38
2022/08/09 20:32:59;;;;;;;3.28;0.90;;;22.00;99.90;;;;;;12334326;28;20057;-33
2022/08/09 20:39:02;;;;;;;4.50;1.10;;;21.90;99.90;;;;;;12340743;28;20121;-34
2022/08/09 20:45:24;;;;;;;7.72;1.25;;;21.80;99.90;;;;;;12329047;28;20101;-34
2022/08/09 20:51:45;;;;;;;1.92;0.98;;;21.70;99.90;;;;;;12332639;28;20058;-38
2022/08/09 20:57:51;;;;;;;5.15;1.48;;;21.70;99.90;;;;;;12328270;28;20057;-33
2022/08/09 21:04:13;;;;;;;1.85;0.90;;;21.60;99.90;;;;;;12324690;28;20167;-38
2022/08/09 21:10:35;;;;;;;6.45;1.20;;;21.60;99.90;;;;;;12331644;28;20067;-37
2022/08/09 21:16:39;;;;;;;4.60;1.20;;;21.40;99.90;;;;;;12333678;28;20391;-38
2022/08/09 21:22:42;;;;;;;3.75;1.30;;;21.30;99.90;;;;;;12339683;28;20093;-37
2022/08/09 21:28:53;;;;;;;2.05;1.00;;;21.10;99.90;;;;;;12341263;28;20062;-35
2022/08/09 21:34:57;;;;;;;3.38;1.05;;;21.00;99.90;;;;;;12336284;28;20150;-33
2022/08/09 21:40:59;;;;;;;2.58;1.10;;;20.90;99.90;;;;;;12336133;28;20077;-37
2022/08/09 21:47:03;;;;;;;3.85;1.25;;;20.90;99.90;;;;;;12342714;28;20074;-33
2022/08/09 21:53:06;;;;;;;6.65;1.40;;;20.80;99.90;;;;;;12335898;28;20051;-37
2022/08/09 21:59:28;;;;;;;5.05;1.10;;;20.70;99.90;;;;;;12333326;28;20057;-37
2022/08/09 22:05:43;;;;;;;3.95;1.27;;;20.50;99.90;;;;;;12340439;28;20043;-37
2022/08/09 22:11:45;;;;;;;3.50;1.20;;;20.40;99.90;;;;;;12342039;28;20428;-37
2022/08/09 22:18:07;;;;;;;3.28;1.15;;;20.50;99.90;;;;;;12344625;28;20507;-37
2022/08/09 22:24:14;;;;;;;6.13;1.10;;;20.40;99.90;;;;;;12340577;28;20084;-38
2022/08/09 22:30:19;;;;;;;2.00;0.93;;;20.20;99.90;;;;;;12338740;28;20057;-39
2022/08/09 22:36:31;;;;;;;5.32;1.45;;;20.00;99.90;;;;;;12331755;28;20051;-37
2022/08/09 22:42:46;;;;;;;2.30;1.20;;;19.90;99.90;;;;;;12327525;28;20422;-37
2022/08/09 22:48:48;;;;;;;2.40;1.23;;;19.80;99.90;;;;;;12327284;28;20055;-38
2022/08/09 22:54:53;;;;;;;2.08;1.10;;;19.80;99.90;;;;;;12335378;28;20055;-36
2022/08/09 23:00:56;;;;;;;3.67;1.55;;;19.80;99.90;;;;;;12332395;28;20439;-37
2022/08/09 23:13:39;;;;;;;5.40;1.40;;;19.70;99.90;;;;;;12325456;28;20050;-37
2022/08/09 23:19:40;;;;;;;4.75;1.50;;;19.50;99.90;;;;;;12338933;28;20146;-34
2022/08/09 23:26:03;;;;;;;4.20;1.35;;;19.40;99.90;;;;;;12332921;28;20051;-37
2022/08/09 23:32:05;;;;;;;3.83;1.35;;;19.20;99.90;;;;;;12331433;28;20089;-38
2022/08/09 23:38:07;;;;;;;4.95;1.60;;;19.00;99.90;;;;;;12315352;28;20511;-34
2022/08/09 23:44:08;;;;;;;3.70;1.42;;;18.90;99.90;;;;;;12329874;28;20104;-34
2022/08/09 23:50:11;;;;;;;4.43;1.20;;;18.80;99.90;;;;;;12321673;28;20046;-38
2022/08/09 23:56:13;;;;;;;4.57;1.70;;;18.80;99.90;;;;;;12310162;28;20106;-34
